sensor_id;sensor_type;location;lat;lon;timestamp;temperature;humidity
44855;DHT22;30591;48.228;16.398;2023-06-14T00:01:59;12.90;99.90
44855;DHT22;30591;48.228;16.398;2023-06-14T00:04:27;12.80;99.90
44855;DHT22;30591;48.228;16.398;2023-06-14T00:06:56;12.90;99.90
44855;DHT22;30591;48.228;16.398;2023-06-14T00:09:24;12.80;99.90
44855;DHT22;30591;48.228;16.398;2023-06-14T00:11:51;12.70;99.90
44855;DHT22;30591;48.228;16.398;2023-06-14T00:14:19;12.60;99.90
44855;DHT22;30591;48.228;16.398;2023-06-14T00:16:46;12.60;99.90
44855;DHT22;30591;48.228;16.398;2023-06-14T00:19:15;12.60;99.90
44855;DHT22;30591;48.228;16.398;2023-06-14T00:21:43;12.60;99.90
44855;DHT22;30591;48.228;16.398;2023-06-14T00:24:11;12.60;99.90
44855;DHT22;30591;48.228;16.398;2023-06-14T00:26:38;12.70;99.90
44855;DHT22;30591;48.228;16.398;2023-06-14T00:29:05;12.70;99.90
44855;DHT22;30591;48.228;16.398;2023-06-14T00:31:33;12.60;99.90
44855;DHT22;30591;48.228;16.398;2023-06-14T00:34:00;12.70;99.90
44855;DHT22;30591;48.228;16.398;2023-06-14T00:36:27;12.60;99.90
44855;DHT22;30591;48.228;16.398;2023-06-14T00:38:55;12.60;99.90
44855;DHT22;30591;48.228;16.398;2023-06-14T00:41:22;12.40;99.90
44855;DHT22;30591;48.228;16.398;2023-06-14T00:43:51;12.50;99.90
44855;DHT22;30591;48.228;16.398;2023-06-14T00:46:19;12.50;99.90
44855;DHT22;30591;48.228;16.398;2023-06-14T00:48:47;12.50;99.90
44855;DHT22;30591;48.228;16.398;2023-06-14T00:51:16;12.50;99.90
44855;DHT22;30591;48.228;16.398;2023-06-14T00:53:43;12.50;99.90
44855;DHT22;30591;48.228;16.398;2023-06-14T00:56:16;12.50;99.90
44855;DHT22;30591;48.228;16.398;2023-06-14T00:58:43;12.60;99.90
44855;DHT22;30591;48.228;16.398;2023-06-14T01:01:11;12.60;99.90
44855;DHT22;30591;48.228;16.398;2023-06-14T01:03:38;12.50;99.90
44855;DHT22;30591;48.228;16.398;2023-06-14T01:06:31;12.40;99.90
44855;DHT22;30591;48.228;16.398;2023-06-14T01:09:32;12.40;99.90
44855;DHT22;30591;48.228;16.398;2023-06-14T01:14:39;12.20;99.90
44855;DHT22;30591;48.228;16.398;2023-06-14T01:17:08;12.20;99.90
44855;DHT22;30591;48.228;16.398;2023-06-14T01:19:43;12.10;99.90
44855;DHT22;30591;48.228;16.398;2023-06-14T01:22:14;12.10;99.90
44855;DHT22;30591;48.228;16.398;2023-06-14T01:24:41;12.10;99.90
44855;DHT22;30591;48.228;16.398;2023-06-14T01:27:13;12.00;99.90
44855;DHT22;30591;48.228;16.398;2023-06-14T01:29:43;12.10;99.90
44855;DHT22;30591;48.228;16.398;2023-06-14T01:32:14;12.00;99.90
44855;DHT22;30591;48.228;16.398;2023-06-14T01:34:42;12.10;99.90
44855;DHT22;30591;48.228;16.398;2023-06-14T01:37:11;12.00;99.90
44855;DHT22;30591;48.228;16.398;2023-06-14T01:39:39;12.00;99.90
44855;DHT22;30591;48.228;16.398;2023-06-14T01:42:08;12.10;99.90
44855;DHT22;30591;48.228;16.398;2023-06-14T01:44:35;12.20;99.90
44855;DHT22;30591;48.228;16.398;2023-06-14T01:47:03;12.10;99.90
44855;DHT22;30591;48.228;16.398;2023-06-14T01:49:34;12.20;99.90
44855;DHT22;30591;48.228;16.398;2023-06-14T01:52:02;12.20;99.90
44855;DHT22;30591;48.228;16.398;2023-06-14T01:54:29;12.20;99.90
44855;DHT22;30591;48.228;16.398;2023-06-14T01:56:58;12.10;99.90
44855;DHT22;30591;48.228;16.398;2023-06-14T01:59:25;12.10;99.90
44855;DHT22;30591;48.228;16.398;2023-06-14T02:01:53;12.00;99.90
44855;DHT22;30591;48.228;16.398;2023-06-14T02:04:20;12.00;99.90
44855;DHT22;30591;48.228;16.398;2023-06-14T02:06:48;12.00;99.90
44855;DHT22;30591;48.228;16.398;2023-06-14T02:09:15;12.00;99.90
44855;DHT22;30591;48.228;16.398;2023-06-14T02:11:44;12.10;99.90
44855;DHT22;30591;48.228;16.398;2023-06-14T02:14:11;12.10;99.90
44855;DHT22;30591;48.228;16.398;2023-06-14T02:16:38;12.10;99.90
44855;DHT22;30591;48.228;16.398;2023-06-14T02:19:07;12.10;99.90
44855;DHT22;30591;48.228;16.398;2023-06-14T02:21:35;12.10;99.90
44855;DHT22;30591;48.228;16.398;2023-06-14T02:24:05;12.00;99.90
44855;DHT22;30591;48.228;16.398;2023-06-14T02:26:33;12.00;99.90
44855;DHT22;30591;48.228;16.398;2023-06-14T02:29:01;12.00;99.90
44855;DHT22;30591;48.228;16.398;2023-06-14T02:31:28;12.10;99.90
44855;DHT22;30591;48.228;16.398;2023-06-14T02:33:56;12.10;99.90
44855;DHT22;30591;48.228;16.398;2023-06-14T02:36:23;12.20;99.90
44855;DHT22;30591;48.228;16.398;2023-06-14T02:38:52;12.20;99.90
44855;DHT22;30591;48.228;16.398;2023-06-14T02:41:21;12.20;99.90
44855;DHT22;30591;48.228;16.398;2023-06-14T02:43:48;12.10;99.90
44855;DHT22;30591;48.228;16.398;2023-06-14T02:46:16;12.10;99.90
44855;DHT22;30591;48.228;16.398;2023-06-14T02:48:43;12.10;99.90
44855;DHT22;30591;48.228;16.398;2023-06-14T02:51:11;12.10;99.90
44855;DHT22;30591;48.228;16.398;2023-06-14T02:53:40;12.00;99.90
44855;DHT22;30591;48.228;16.398;2023-06-14T02:56:09;12.00;99.90
44855;DHT22;30591;48.228;16.398;2023-06-14T02:58:37;12.00;99.90
44855;DHT22;30591;48.228;16.398;2023-06-14T03:01:08;12.10;99.90
44855;DHT22;30591;48.228;16.398;2023-06-14T03:03:38;12.10;99.90
44855;DHT22;30591;48.228;16.398;2023-06-14T03:06:06;12.00;99.90
44855;DHT22;30591;48.228;16.398;2023-06-14T03:08:37;12.00;99.90
44855;DHT22;30591;48.228;16.398;2023-06-14T03:11:13;11.90;99.90
44855;DHT22;30591;48.228;16.398;2023-06-14T03:13:40;12.00;99.90
44855;DHT22;30591;48.228;16.398;2023-06-14T03:16:08;12.00;99.90
44855;DHT22;30591;48.228;16.398;2023-06-14T03:18:39;11.90;99.90
44855;DHT22;30591;48.228;16.398;2023-06-14T03:21:07;12.00;99.90
44855;DHT22;30591;48.228;16.398;2023-06-14T03:23:40;12.10;99.90
44855;DHT22;30591;48.228;16.398;2023-06-14T03:26:10;12.30;99.90
44855;DHT22;30591;48.228;16.398;2023-06-14T03:28:41;12.20;99.90
44855;DHT22;30591;48.228;16.398;2023-06-14T03:31:09;12.20;99.90
44855;DHT22;30591;48.228;16.398;2023-06-14T03:33:36;12.10;99.90
44855;DHT22;30591;48.228;16.398;2023-06-14T03:36:05;12.10;99.90
44855;DHT22;30591;48.228;16.398;2023-06-14T03:38:34;12.20;99.90
44855;DHT22;30591;48.228;16.398;2023-06-14T03:41:04;12.20;99.90
44855;DHT22;30591;48.228;16.398;2023-06-14T03:43:32;12.10;99.90
44855;DHT22;30591;48.228;16.398;2023-06-14T03:46:01;12.10;99.90
44855;DHT22;30591;48.228;16.398;2023-06-14T03:48:30;12.10;99.90
44855;DHT22;30591;48.228;16.398;2023-06-14T03:50:58;12.20;99.90
44855;DHT22;30591;48.228;16.398;2023-06-14T03:53:29;12.10;99.90
44855;DHT22;30591;48.228;16.398;2023-06-14T03:55:57;12.20;99.90
44855;DHT22;30591;48.228;16.398;2023-06-14T03:58:36;12.30;99.90
44855;DHT22;30591;48.228;16.398;2023-06-14T04:01:04;12.20;99.90
44855;DHT22;30591;48.228;16.398;2023-06-14T04:03:31;12.10;99.90
44855;DHT22;30591;48.228;16.398;2023-06-14T04:06:01;12.10;99.90
44855;DHT22;30591;48.228;16.398;2023-06-14T04:08:28;12.30;99.90
44855;DHT22;30591;48.228;16.398;2023-06-14T04:10:57;12.50;99.90
44855;DHT22;30591;48.228;16.398;2023-06-14T04:13:26;12.60;99.90
44855;DHT22;30591;48.228;16.398;2023-06-14T04:15:54;12.80;99.90
44855;DHT22;30591;48.228;16.398;2023-06-14T04:18:30;13.10;99.90
44855;DHT22;30591;48.228;16.398;2023-06-14T04:20:57;13.20;99.90
44855;DHT22;30591;48.228;16.398;2023-06-14T04:23:25;13.30;99.90
44855;DHT22;30591;48.228;16.398;2023-06-14T04:25:52;13.40;99.90
44855;DHT22;30591;48.228;16.398;2023-06-14T04:28:19;13.40;99.90
44855;DHT22;30591;48.228;16.398;2023-06-14T04:30:47;13.50;99.90
44855;DHT22;30591;48.228;16.398;2023-06-14T04:33:17;13.70;99.90
44855;DHT22;30591;48.228;16.398;2023-06-14T04:35:45;13.60;99.90
44855;DHT22;30591;48.228;16.398;2023-06-14T04:38:18;13.80;99.90
44855;DHT22;30591;48.228;16.398;2023-06-14T04:40:46;13.80;99.90
44855;DHT22;30591;48.228;16.398;2023-06-14T04:43:16;13.90;99.90
44855;DHT22;30591;48.228;16.398;2023-06-14T04:45:47;14.10;99.90
44855;DHT22;30591;48.228;16.398;2023-06-14T04:48:15;14.10;99.90
44855;DHT22;30591;48.228;16.398;2023-06-14T04:50:48;14.20;99.90
44855;DHT22;30591;48.228;16.398;2023-06-14T04:53:21;14.20;99.90
44855;DHT22;30591;48.228;16.398;2023-06-14T04:55:54;14.30;99.90
44855;DHT22;30591;48.228;16.398;2023-06-14T04:58:22;14.30;99.90
44855;DHT22;30591;48.228;16.398;2023-06-14T05:00:49;14.50;99.90
44855;DHT22;30591;48.228;16.398;2023-06-14T05:03:17;14.60;99.90
44855;DHT22;30591;48.228;16.398;2023-06-14T05:05:46;14.70;99.90
44855;DHT22;30591;48.228;16.398;2023-06-14T05:08:13;15.00;99.90
44855;DHT22;30591;48.228;16.398;2023-06-14T05:10:41;15.00;99.90
44855;DHT22;30591;48.228;16.398;2023-06-14T05:13:08;15.00;99.90
44855;DHT22;30591;48.228;16.398;2023-06-14T05:15:35;15.00;99.90
44855;DHT22;30591;48.228;16.398;2023-06-14T05:18:03;15.00;99.90
44855;DHT22;30591;48.228;16.398;2023-06-14T05:20:30;15.10;99.90
44855;DHT22;30591;48.228;16.398;2023-06-14T05:22:57;15.20;99.90
44855;DHT22;30591;48.228;16.398;2023-06-14T05:25:25;15.20;99.90
44855;DHT22;30591;48.228;16.398;2023-06-14T05:27:52;15.00;99.90
44855;DHT22;30591;48.228;16.398;2023-06-14T05:30:20;14.70;99.90
44855;DHT22;30591;48.228;16.398;2023-06-14T05:32:47;14.60;99.90
44855;DHT22;30591;48.228;16.398;2023-06-14T05:35:15;14.60;99.90
44855;DHT22;30591;48.228;16.398;2023-06-14T05:37:43;14.90;99.90
44855;DHT22;30591;48.228;16.398;2023-06-14T05:40:11;15.40;99.90
44855;DHT22;30591;48.228;16.398;2023-06-14T05:42:38;15.40;99.90
44855;DHT22;30591;48.228;16.398;2023-06-14T05:45:06;15.60;99.90
44855;DHT22;30591;48.228;16.398;2023-06-14T05:47:33;15.80;99.90
44855;DHT22;30591;48.228;16.398;2023-06-14T05:50:01;16.10;99.90
44855;DHT22;30591;48.228;16.398;2023-06-14T05:52:28;16.10;99.90
44855;DHT22;30591;48.228;16.398;2023-06-14T05:54:56;16.20;99.90
44855;DHT22;30591;48.228;16.398;2023-06-14T05:57:24;16.40;99.90
44855;DHT22;30591;48.228;16.398;2023-06-14T05:59:51;16.70;99.90
44855;DHT22;30591;48.228;16.398;2023-06-14T06:02:18;17.10;99.90
44855;DHT22;30591;48.228;16.398;2023-06-14T06:04:46;17.20;99.90
44855;DHT22;30591;48.228;16.398;2023-06-14T06:07:13;16.80;99.90
44855;DHT22;30591;48.228;16.398;2023-06-14T06:09:41;16.50;99.90
44855;DHT22;30591;48.228;16.398;2023-06-14T06:12:08;16.20;99.90
44855;DHT22;30591;48.228;16.398;2023-06-14T06:14:35;16.20;99.90
44855;DHT22;30591;48.228;16.398;2023-06-14T06:17:03;16.70;99.90
44855;DHT22;30591;48.228;16.398;2023-06-14T06:19:30;16.30;99.90
44855;DHT22;30591;48.228;16.398;2023-06-14T06:21:57;16.40;99.90
44855;DHT22;30591;48.228;16.398;2023-06-14T06:24:25;16.50;99.90
44855;DHT22;30591;48.228;16.398;2023-06-14T06:26:52;16.70;99.90
44855;DHT22;30591;48.228;16.398;2023-06-14T06:29:19;17.40;99.90
44855;DHT22;30591;48.228;16.398;2023-06-14T06:31:47;17.60;99.90
44855;DHT22;30591;48.228;16.398;2023-06-14T06:34:15;17.30;99.90
44855;DHT22;30591;48.228;16.398;2023-06-14T06:36:42;17.70;99.90
44855;DHT22;30591;48.228;16.398;2023-06-14T06:39:10;17.80;99.90
44855;DHT22;30591;48.228;16.398;2023-06-14T06:41:38;18.00;99.90
44855;DHT22;30591;48.228;16.398;2023-06-14T06:44:07;18.00;99.90
44855;DHT22;30591;48.228;16.398;2023-06-14T06:46:35;17.80;99.90
44855;DHT22;30591;48.228;16.398;2023-06-14T06:49:07;17.50;99.90
44855;DHT22;30591;48.228;16.398;2023-06-14T06:51:35;17.10;99.90
44855;DHT22;30591;48.228;16.398;2023-06-14T06:54:03;16.80;99.90
44855;DHT22;30591;48.228;16.398;2023-06-14T06:56:33;16.70;99.90
44855;DHT22;30591;48.228;16.398;2023-06-14T06:59:00;16.70;99.90
44855;DHT22;30591;48.228;16.398;2023-06-14T07:01:28;16.50;99.90
44855;DHT22;30591;48.228;16.398;2023-06-14T07:03:56;16.50;99.90
44855;DHT22;30591;48.228;16.398;2023-06-14T07:06:23;16.90;99.90
44855;DHT22;30591;48.228;16.398;2023-06-14T07:08:54;17.60;99.90
44855;DHT22;30591;48.228;16.398;2023-06-14T07:11:21;17.90;99.90
44855;DHT22;30591;48.228;16.398;2023-06-14T07:13:49;18.10;99.90
44855;DHT22;30591;48.228;16.398;2023-06-14T07:16:16;18.30;99.90
44855;DHT22;30591;48.228;16.398;2023-06-14T07:18:44;18.40;99.90
44855;DHT22;30591;48.228;16.398;2023-06-14T07:21:11;18.30;99.90
44855;DHT22;30591;48.228;16.398;2023-06-14T07:23:38;18.50;99.90
44855;DHT22;30591;48.228;16.398;2023-06-14T07:26:06;18.60;99.90
44855;DHT22;30591;48.228;16.398;2023-06-14T07:28:33;18.80;99.90
44855;DHT22;30591;48.228;16.398;2023-06-14T07:31:00;18.90;99.70
44855;DHT22;30591;48.228;16.398;2023-06-14T07:33:28;18.50;99.80
44855;DHT22;30591;48.228;16.398;2023-06-14T07:35:55;18.70;99.50
44855;DHT22;30591;48.228;16.398;2023-06-14T07:38:23;18.80;99.90
44855;DHT22;30591;48.228;16.398;2023-06-14T07:40:50;19.00;99.90
44855;DHT22;30591;48.228;16.398;2023-06-14T07:43:18;19.10;99.60
44855;DHT22;30591;48.228;16.398;2023-06-14T07:45:48;19.20;99.70
44855;DHT22;30591;48.228;16.398;2023-06-14T07:48:32;19.30;99.40
44855;DHT22;30591;48.228;16.398;2023-06-14T07:51:00;19.20;99.00
44855;DHT22;30591;48.228;16.398;2023-06-14T07:53:28;19.50;99.10
44855;DHT22;30591;48.228;16.398;2023-06-14T07:55:59;19.70;99.90
44855;DHT22;30591;48.228;16.398;2023-06-14T07:58:27;19.80;98.20
44855;DHT22;30591;48.228;16.398;2023-06-14T08:00:54;19.90;98.40
44855;DHT22;30591;48.228;16.398;2023-06-14T08:03:21;19.50;98.20
44855;DHT22;30591;48.228;16.398;2023-06-14T08:05:50;19.50;97.00
44855;DHT22;30591;48.228;16.398;2023-06-14T08:08:18;19.60;97.60
44855;DHT22;30591;48.228;16.398;2023-06-14T08:10:45;19.70;97.40
44855;DHT22;30591;48.228;16.398;2023-06-14T08:13:12;19.90;97.90
44855;DHT22;30591;48.228;16.398;2023-06-14T08:15:40;20.00;97.60
44855;DHT22;30591;48.228;16.398;2023-06-14T08:18:07;20.10;98.10
44855;DHT22;30591;48.228;16.398;2023-06-14T08:20:35;20.10;97.70
44855;DHT22;30591;48.228;16.398;2023-06-14T08:23:03;20.20;98.10
44855;DHT22;30591;48.228;16.398;2023-06-14T08:25:31;20.30;97.60
44855;DHT22;30591;48.228;16.398;2023-06-14T08:27:59;20.30;97.50
44855;DHT22;30591;48.228;16.398;2023-06-14T08:30:27;19.60;96.60
44855;DHT22;30591;48.228;16.398;2023-06-14T08:32:54;20.10;97.90
44855;DHT22;30591;48.228;16.398;2023-06-14T08:35:42;20.30;98.20
44855;DHT22;30591;48.228;16.398;2023-06-14T08:38:10;20.40;95.20
44855;DHT22;30591;48.228;16.398;2023-06-14T08:40:40;20.40;96.10
44855;DHT22;30591;48.228;16.398;2023-06-14T08:43:09;20.50;95.60
44855;DHT22;30591;48.228;16.398;2023-06-14T08:45:36;20.70;94.80
44855;DHT22;30591;48.228;16.398;2023-06-14T08:48:08;20.70;96.10
44855;DHT22;30591;48.228;16.398;2023-06-14T08:50:40;21.00;96.60
44855;DHT22;30591;48.228;16.398;2023-06-14T08:53:11;21.30;94.60
44855;DHT22;30591;48.228;16.398;2023-06-14T08:55:46;20.90;94.60
44855;DHT22;30591;48.228;16.398;2023-06-14T08:58:14;20.90;93.20
44855;DHT22;30591;48.228;16.398;2023-06-14T09:00:42;21.00;94.70
44855;DHT22;30591;48.228;16.398;2023-06-14T09:03:12;20.70;92.10
44855;DHT22;30591;48.228;16.398;2023-06-14T09:05:43;20.70;95.30
44855;DHT22;30591;48.228;16.398;2023-06-14T09:08:11;20.50;94.10
44855;DHT22;30591;48.228;16.398;2023-06-14T09:10:40;21.00;95.10
44855;DHT22;30591;48.228;16.398;2023-06-14T09:13:08;21.00;92.20
44855;DHT22;30591;48.228;16.398;2023-06-14T09:15:35;21.00;92.90
44855;DHT22;30591;48.228;16.398;2023-06-14T09:18:03;21.10;91.60
44855;DHT22;30591;48.228;16.398;2023-06-14T09:20:31;21.40;93.80
44855;DHT22;30591;48.228;16.398;2023-06-14T09:23:00;21.60;93.90
44855;DHT22;30591;48.228;16.398;2023-06-14T09:25:28;21.60;94.70
44855;DHT22;30591;48.228;16.398;2023-06-14T09:27:58;21.50;93.80
44855;DHT22;30591;48.228;16.398;2023-06-14T09:30:25;21.40;92.70
44855;DHT22;30591;48.228;16.398;2023-06-14T09:32:53;21.70;93.50
44855;DHT22;30591;48.228;16.398;2023-06-14T09:35:20;22.00;91.90
44855;DHT22;30591;48.228;16.398;2023-06-14T09:37:48;22.00;93.70
44855;DHT22;30591;48.228;16.398;2023-06-14T09:40:20;22.00;92.00
44855;DHT22;30591;48.228;16.398;2023-06-14T09:42:49;22.00;91.10
44855;DHT22;30591;48.228;16.398;2023-06-14T09:45:17;22.00;92.90
44855;DHT22;30591;48.228;16.398;2023-06-14T09:47:49;21.90;91.30
44855;DHT22;30591;48.228;16.398;2023-06-14T09:50:33;22.10;90.80
44855;DHT22;30591;48.228;16.398;2023-06-14T09:53:06;22.10;91.20
44855;DHT22;30591;48.228;16.398;2023-06-14T09:55:36;22.20;90.80
44855;DHT22;30591;48.228;16.398;2023-06-14T09:58:06;22.30;90.90
44855;DHT22;30591;48.228;16.398;2023-06-14T10:00:36;22.50;87.50
44855;DHT22;30591;48.228;16.398;2023-06-14T10:03:13;22.30;91.00
44855;DHT22;30591;48.228;16.398;2023-06-14T10:05:45;22.30;84.30
44855;DHT22;30591;48.228;16.398;2023-06-14T10:08:16;22.60;85.60
44855;DHT22;30591;48.228;16.398;2023-06-14T10:10:44;22.70;88.90
44855;DHT22;30591;48.228;16.398;2023-06-14T10:13:12;22.90;86.60
44855;DHT22;30591;48.228;16.398;2023-06-14T10:23:44;23.10;91.70
44855;DHT22;30591;48.228;16.398;2023-06-14T10:26:21;23.30;91.00
44855;DHT22;30591;48.228;16.398;2023-06-14T10:28:57;23.40;90.10
44855;DHT22;30591;48.228;16.398;2023-06-14T10:31:45;23.50;87.20
44855;DHT22;30591;48.228;16.398;2023-06-14T10:34:24;23.40;84.20
44855;DHT22;30591;48.228;16.398;2023-06-14T10:37:04;23.60;89.40
44855;DHT22;30591;48.228;16.398;2023-06-14T10:39:38;23.80;85.90
44855;DHT22;30591;48.228;16.398;2023-06-14T10:42:06;23.80;83.20
44855;DHT22;30591;48.228;16.398;2023-06-14T10:44:40;23.80;81.80
44855;DHT22;30591;48.228;16.398;2023-06-14T10:47:31;23.80;86.50
44855;DHT22;30591;48.228;16.398;2023-06-14T10:50:07;24.00;88.50
44855;DHT22;30591;48.228;16.398;2023-06-14T10:52:38;24.10;86.50
44855;DHT22;30591;48.228;16.398;2023-06-14T11:00:13;24.20;83.90
44855;DHT22;30591;48.228;16.398;2023-06-14T11:05:51;24.30;79.20
44855;DHT22;30591;48.228;16.398;2023-06-14T11:11:13;24.30;80.80
44855;DHT22;30591;48.228;16.398;2023-06-14T11:13:49;24.10;83.40
44855;DHT22;30591;48.228;16.398;2023-06-14T11:16:20;24.30;82.30
44855;DHT22;30591;48.228;16.398;2023-06-14T11:18:48;24.50;80.30
44855;DHT22;30591;48.228;16.398;2023-06-14T11:21:17;24.60;81.60
44855;DHT22;30591;48.228;16.398;2023-06-14T11:23:52;24.70;81.00
44855;DHT22;30591;48.228;16.398;2023-06-14T11:26:27;24.80;78.10
44855;DHT22;30591;48.228;16.398;2023-06-14T11:28:56;24.40;76.50
44855;DHT22;30591;48.228;16.398;2023-06-14T11:31:25;24.40;80.00
44855;DHT22;30591;48.228;16.398;2023-06-14T11:33:55;24.70;82.30
44855;DHT22;30591;48.228;16.398;2023-06-14T11:36:28;25.20;83.00
44855;DHT22;30591;48.228;16.398;2023-06-14T11:39:02;25.10;83.60
44855;DHT22;30591;48.228;16.398;2023-06-14T11:41:37;25.20;81.20
44855;DHT22;30591;48.228;16.398;2023-06-14T11:44:06;25.40;81.80
44855;DHT22;30591;48.228;16.398;2023-06-14T11:46:34;25.10;79.60
44855;DHT22;30591;48.228;16.398;2023-06-14T11:49:03;25.10;73.10
44855;DHT22;30591;48.228;16.398;2023-06-14T11:51:35;25.30;75.70
44855;DHT22;30591;48.228;16.398;2023-06-14T11:54:03;25.60;76.50
44855;DHT22;30591;48.228;16.398;2023-06-14T11:56:31;25.70;79.80
44855;DHT22;30591;48.228;16.398;2023-06-14T11:58:59;25.10;71.00
44855;DHT22;30591;48.228;16.398;2023-06-14T12:01:30;25.10;76.80
44855;DHT22;30591;48.228;16.398;2023-06-14T12:03:57;25.30;80.40
44855;DHT22;30591;48.228;16.398;2023-06-14T12:06:27;24.70;82.00
44855;DHT22;30591;48.228;16.398;2023-06-14T12:09:04;24.20;79.00
44855;DHT22;30591;48.228;16.398;2023-06-14T12:11:35;23.80;82.40
44855;DHT22;30591;48.228;16.398;2023-06-14T12:14:04;23.80;83.50
44855;DHT22;30591;48.228;16.398;2023-06-14T12:16:33;24.10;78.40
44855;DHT22;30591;48.228;16.398;2023-06-14T12:19:14;24.80;78.80
44855;DHT22;30591;48.228;16.398;2023-06-14T12:21:43;25.40;73.40
44855;DHT22;30591;48.228;16.398;2023-06-14T12:24:14;25.60;74.80
44855;DHT22;30591;48.228;16.398;2023-06-14T12:26:42;25.80;80.90
44855;DHT22;30591;48.228;16.398;2023-06-14T12:29:09;26.00;78.40
44855;DHT22;30591;48.228;16.398;2023-06-14T12:31:37;24.90;74.90
44855;DHT22;30591;48.228;16.398;2023-06-14T12:34:05;24.20;77.80
44855;DHT22;30591;48.228;16.398;2023-06-14T12:36:32;24.90;75.00
44855;DHT22;30591;48.228;16.398;2023-06-14T12:39:00;26.00;80.10
44855;DHT22;30591;48.228;16.398;2023-06-14T12:41:28;26.70;77.20
44855;DHT22;30591;48.228;16.398;2023-06-14T12:43:55;26.80;74.20
44855;DHT22;30591;48.228;16.398;2023-06-14T12:46:24;27.40;73.40
44855;DHT22;30591;48.228;16.398;2023-06-14T12:48:52;28.30;63.00
44855;DHT22;30591;48.228;16.398;2023-06-14T12:51:19;28.70;71.60
44855;DHT22;30591;48.228;16.398;2023-06-14T12:53:47;28.90;67.70
44855;DHT22;30591;48.228;16.398;2023-06-14T12:56:14;27.00;72.90
44855;DHT22;30591;48.228;16.398;2023-06-14T12:58:42;25.30;77.90
44855;DHT22;30591;48.228;16.398;2023-06-14T13:01:10;24.30;81.10
44855;DHT22;30591;48.228;16.398;2023-06-14T13:03:37;23.90;81.60
44855;DHT22;30591;48.228;16.398;2023-06-14T13:06:04;23.90;85.60
44855;DHT22;30591;48.228;16.398;2023-06-14T13:11:00;30.50;72.30
44855;DHT22;30591;48.228;16.398;2023-06-14T13:13:27;31.70;67.60
44855;DHT22;30591;48.228;16.398;2023-06-14T13:15:55;32.10;64.50
44855;DHT22;30591;48.228;16.398;2023-06-14T13:18:22;31.10;59.10
44855;DHT22;30591;48.228;16.398;2023-06-14T13:20:50;31.30;63.00
44855;DHT22;30591;48.228;16.398;2023-06-14T13:23:17;31.10;60.60
44855;DHT22;30591;48.228;16.398;2023-06-14T13:25:45;30.40;61.70
44855;DHT22;30591;48.228;16.398;2023-06-14T13:28:13;29.30;60.20
44855;DHT22;30591;48.228;16.398;2023-06-14T13:30:41;28.40;68.40
44855;DHT22;30591;48.228;16.398;2023-06-14T13:33:08;28.30;69.20
44855;DHT22;30591;48.228;16.398;2023-06-14T13:35:36;28.50;69.70
44855;DHT22;30591;48.228;16.398;2023-06-14T13:38:04;28.60;69.40
44855;DHT22;30591;48.228;16.398;2023-06-14T13:40:31;28.40;69.80
44855;DHT22;30591;48.228;16.398;2023-06-14T13:42:59;27.00;75.60
44855;DHT22;30591;48.228;16.398;2023-06-14T13:45:26;25.60;72.30
44855;DHT22;30591;48.228;16.398;2023-06-14T13:47:54;24.50;74.80
44855;DHT22;30591;48.228;16.398;2023-06-14T13:50:22;23.80;76.90
44855;DHT22;30591;48.228;16.398;2023-06-14T13:52:49;24.30;80.00
44855;DHT22;30591;48.228;16.398;2023-06-14T13:55:16;26.70;72.20
44855;DHT22;30591;48.228;16.398;2023-06-14T13:57:44;29.60;66.50
44855;DHT22;30591;48.228;16.398;2023-06-14T14:00:13;30.50;61.90
44855;DHT22;30591;48.228;16.398;2023-06-14T14:02:41;31.80;63.10
44855;DHT22;30591;48.228;16.398;2023-06-14T14:05:09;31.60;58.30
44855;DHT22;30591;48.228;16.398;2023-06-14T14:07:37;32.80;59.90
44855;DHT22;30591;48.228;16.398;2023-06-14T14:10:05;33.30;59.50
44855;DHT22;30591;48.228;16.398;2023-06-14T14:12:33;33.30;54.50
44855;DHT22;30591;48.228;16.398;2023-06-14T14:15:00;33.60;56.70
44855;DHT22;30591;48.228;16.398;2023-06-14T14:17:28;33.60;54.70
44855;DHT22;30591;48.228;16.398;2023-06-14T14:19:55;33.50;53.80
44855;DHT22;30591;48.228;16.398;2023-06-14T14:22:23;33.80;53.40
44855;DHT22;30591;48.228;16.398;2023-06-14T14:24:50;33.70;53.50
44855;DHT22;30591;48.228;16.398;2023-06-14T14:27:17;33.80;54.10
44855;DHT22;30591;48.228;16.398;2023-06-14T14:29:45;33.70;52.10
44855;DHT22;30591;48.228;16.398;2023-06-14T14:32:12;34.20;52.40
44855;DHT22;30591;48.228;16.398;2023-06-14T14:34:41;34.20;53.80
44855;DHT22;30591;48.228;16.398;2023-06-14T14:37:08;33.90;49.20
44855;DHT22;30591;48.228;16.398;2023-06-14T14:39:37;34.40;52.20
44855;DHT22;30591;48.228;16.398;2023-06-14T14:42:05;34.90;54.60
44855;DHT22;30591;48.228;16.398;2023-06-14T14:44:34;34.70;51.90
44855;DHT22;30591;48.228;16.398;2023-06-14T14:48:15;34.80;52.20
44855;DHT22;30591;48.228;16.398;2023-06-14T14:50:42;35.20;48.60
44855;DHT22;30591;48.228;16.398;2023-06-14T14:53:09;34.70;49.50
44855;DHT22;30591;48.228;16.398;2023-06-14T14:55:37;35.00;48.70
44855;DHT22;30591;48.228;16.398;2023-06-14T14:58:06;35.30;48.40
44855;DHT22;30591;48.228;16.398;2023-06-14T15:00:34;35.50;49.60
44855;DHT22;30591;48.228;16.398;2023-06-14T15:03:02;35.50;48.30
44855;DHT22;30591;48.228;16.398;2023-06-14T15:05:29;35.20;48.50
44855;DHT22;30591;48.228;16.398;2023-06-14T15:07:57;35.80;48.10
44855;DHT22;30591;48.228;16.398;2023-06-14T15:10:24;34.70;48.10
44855;DHT22;30591;48.228;16.398;2023-06-14T15:12:51;35.50;47.70
44855;DHT22;30591;48.228;16.398;2023-06-14T15:15:19;35.70;48.80
44855;DHT22;30591;48.228;16.398;2023-06-14T15:17:46;35.40;47.80
44855;DHT22;30591;48.228;16.398;2023-06-14T15:20:13;34.70;46.80
44855;DHT22;30591;48.228;16.398;2023-06-14T15:22:42;34.60;47.10
44855;DHT22;30591;48.228;16.398;2023-06-14T15:25:10;34.70;44.70
44855;DHT22;30591;48.228;16.398;2023-06-14T15:27:37;35.10;42.30
44855;DHT22;30591;48.228;16.398;2023-06-14T15:30:06;35.00;45.30
44855;DHT22;30591;48.228;16.398;2023-06-14T15:32:33;35.10;47.70
44855;DHT22;30591;48.228;16.398;2023-06-14T15:35:01;35.10;46.30
44855;DHT22;30591;48.228;16.398;2023-06-14T15:37:28;34.10;49.40
44855;DHT22;30591;48.228;16.398;2023-06-14T15:39:56;32.00;53.60
44855;DHT22;30591;48.228;16.398;2023-06-14T15:42:23;31.60;54.80
44855;DHT22;30591;48.228;16.398;2023-06-14T15:44:50;32.70;52.90
44855;DHT22;30591;48.228;16.398;2023-06-14T15:47:17;31.70;54.90
44855;DHT22;30591;48.228;16.398;2023-06-14T15:49:45;31.50;55.30
44855;DHT22;30591;48.228;16.398;2023-06-14T15:52:12;31.70;55.50